Flight Track Log - Related Links

Times and Time Zones

All times are in EDT time to prevent confusion due to time zone crossing. See the ASQ6159 flight status page for this flight to view local times or setup timezone preferences in your user account.


Time Position Orientation Groundspeed Altitude Reporting Facility
EDT Latitude Longitude Course Direction KTS MPH feet Rate Location/Type
Thu 09:11:28 PM 39.8986 -84.2417 327° Northwest 160 184 1,800  Level Indianapolis Center
Thu 09:12:16 PM 39.8933 -84.2906 262° West 181 208 4,100 2,278 Climbing Indianapolis Center
Thu 09:12:47 PM 39.8897 -84.3303 263° West 200 230 4,800 1,065 Climbing Indianapolis Center
Thu 09:13:18 PM 39.8892 -84.3631 269° West 193 222 5,200 2,283 Climbing Indianapolis Center
Thu 09:14:00 PM 40.0880 -84.3879 323° Northwest  Level FlightAware Approximate
Thu 09:14:19 PM 39.9325 -84.4239 313° West 245 282 8,300  Level Indianapolis Center
Thu 09:15:00 PM 40.1409 -84.4517 327° Northwest  Level FlightAware Approximate
Thu 09:15:20 PM 39.9956 -84.4681 332° Northwest 250 288 10,500  Level Indianapolis Center
Thu 09:16:00 PM 40.2052 -84.5068 327° Northwest  Level FlightAware Approximate
Thu 09:16:21 PM 40.0700 -84.5239 330° Northwest 291 335 11,400  Level Indianapolis Center
Thu 09:17:23 PM 40.1561 -84.5842 332° Northwest 333 383 12,900 1,707 Climbing Indianapolis Center
Thu 09:18:24 PM 40.2411 -84.6436 332° Northwest 341 392 14,900 1,623 Climbing Indianapolis Center
Thu 09:19:25 PM 40.3236 -84.7039 331° Northwest 339 390 16,200 1,220 Climbing Indianapolis Center
Thu 09:20:27 PM 40.4078 -84.7667 330° Northwest 343 395 17,400 976 Climbing Indianapolis Center
Thu 09:21:28 PM 40.4939 -84.8286 331° Northwest 347 399 18,200 934 Climbing Indianapolis Center
Thu 09:22:29 PM 40.5806 -84.8922 331° Northwest 352 405 19,300 1,200 Climbing Indianapolis Center
Thu 09:23:03 PM 40.6361 -84.9328 331° Northwest 353 406 20,100 1,188 Climbing Chicago Center
Thu 09:24:05 PM 40.7075 -85.0086 321° Northwest 360 414 21,200 912 Climbing Chicago Center
Thu 09:25:08 PM 40.7664 -85.1128 307° West 353 406 22,000 384 Climbing Chicago Center
Thu 09:26:10 PM 40.8394 -85.2431 307° West 362 417 22,000  Level Chicago Center
Thu 09:27:12 PM 40.9022 -85.3528 307° West 370 426 22,000  Level Chicago Center
Thu 09:28:14 PM 40.9644 -85.4628 307° West 373 429 22,000  Level Chicago Center
Thu 09:29:16 PM 41.0264 -85.5725 307° West 371 427 22,000  Level Chicago Center
Thu 09:30:18 PM 41.0872 -85.6836 306° West 370 426 22,000  Level Chicago Center
Thu 09:31:20 PM 41.1469 -85.7978 305° West 375 432 22,000  Level Chicago Center
Thu 09:32:22 PM 41.2072 -85.9125 305° West 377 434 22,000  Level Chicago Center
Thu 09:33:24 PM 41.2783 -86.0511 304° West 376 433 22,000 -339 Level Chicago Center
Thu 09:34:26 PM 41.3367 -86.1656 304° West 373 429 21,300 -1,016 Descending Chicago Center
Thu 09:35:28 PM 41.3936 -86.2758 305° West 363 418 19,900 -1,463 Descending Chicago Center
Thu 09:36:29 PM 41.4486 -86.3831 304° West 353 406 18,300 -1,561 Descending Chicago Center
Thu 09:37:31 PM 41.5014 -86.4878 304° West 345 397 16,700 -1,742 Descending Chicago Center
Thu 09:38:33 PM 41.5542 -86.5914 304° West 339 390 14,700 -1,984 Descending Chicago Center
Thu 09:39:35 PM 41.6172 -86.7144 304° West 336 387 12,600 -1,258 Descending Chicago Center
Thu 09:40:37 PM 41.6844 -86.7942 318° Northwest 343 395 12,100 -629 Descending Chicago Center
Thu 09:41:39 PM 41.7758 -86.8097 353° North 337 388 11,300 -484 Descending Chicago Center
Thu 09:42:41 PM 41.8631 -86.8317 349° North 328 377 11,100 -290 Descending Chicago Center
Thu 09:43:43 PM 41.9147 -86.9231 307° West 320 368 10,700 -488 Descending Chicago Center
Thu 09:44:44 PM 41.9372 -87.0364 285° West 317 365 10,100 -341 Descending Chicago Center
Thu 09:45:46 PM 41.9636 -87.1708 285° West 313 360 10,000 -677 Descending Chicago Center
Thu 09:46:48 PM 41.9703 -87.2639 276° West 260 299 8,700 -1,355 Descending Chicago Center
Thu 09:47:50 PM 41.9686 -87.3586 269° West 256 295 7,200 -962 Descending Chicago Center
Thu 09:48:34 PM 41.9667 -87.4333 268° West 252 290 7,000 -612 Descending Chicago TRACON
Thu 09:49:28 PM 41.9667 -87.5167 270° West 248 285 6,200 -1,211 Descending Chicago TRACON
Thu 09:50:28 PM 41.9667 -87.6167 270° West 230 265 4,700 -1,289 Descending Chicago TRACON
Thu 09:51:29 PM 41.9667 -87.6833 270° West 201 231 3,600 -1,082 Descending Chicago TRACON

Login

Don't have an account? Register now (free) for customized features, flight alerts, and more!